createdAt,value
2019-02-24T00:01:57.434Z,271.13
2019-02-24T00:04:28.442Z,261.00
2019-02-24T00:06:59.689Z,240.23
2019-02-24T00:09:30.685Z,205.07
2019-02-24T00:12:01.741Z,189.77
2019-02-24T00:14:32.917Z,175.70
2019-02-24T00:17:05.263Z,163.37
2019-02-24T00:19:36.497Z,151.75
2019-02-24T00:22:07.569Z,139.72
2019-02-24T00:24:38.914Z,148.43
2019-02-24T00:27:09.979Z,142.15
2019-02-24T00:29:41.175Z,148.00
2019-02-24T00:32:12.246Z,134.70
2019-02-24T00:34:43.707Z,137.27
2019-02-24T00:37:14.773Z,116.17
2019-02-24T00:39:45.903Z,113.30
2019-02-24T00:42:16.872Z,74.00
2019-02-24T00:44:48.024Z,77.55
2019-02-24T00:47:19.373Z,80.13
2019-02-24T00:49:50.545Z,88.25
2019-02-24T00:52:21.604Z,88.17
2019-02-24T00:54:53.578Z,92.55
2019-02-24T00:57:24.610Z,84.57
2019-02-24T00:59:55.607Z,73.90
2019-02-24T01:02:26.645Z,72.62
2019-02-24T01:04:57.675Z,73.42
2019-02-24T01:07:28.910Z,63.35
2019-02-24T01:09:59.802Z,48.20
2019-02-24T01:12:30.922Z,36.55
2019-02-24T01:15:02.077Z,58.43
2019-02-24T01:17:34.408Z,67.23
2019-02-24T01:20:10.263Z,72.37
2019-02-24T01:22:41.395Z,71.40
2019-02-24T01:25:12.557Z,61.87
2019-02-24T01:27:43.513Z,56.15
2019-02-24T01:30:14.602Z,30.53
2019-02-24T01:32:45.667Z,48.17
2019-02-24T01:35:17.504Z,60.17
2019-02-24T01:37:48.563Z,48.27
2019-02-24T01:40:19.745Z,57.78
2019-02-24T01:42:53.675Z,62.20
2019-02-24T01:45:24.740Z,36.93
2019-02-24T01:47:55.803Z,69.50
2019-02-24T01:50:26.857Z,61.88
2019-02-24T01:52:58.000Z,62.83
2019-02-24T01:55:29.225Z,70.67
2019-02-24T01:58:00.186Z,69.90
2019-02-24T02:00:31.942Z,77.17
2019-02-24T02:03:02.907Z,71.47
2019-02-24T02:05:33.886Z,60.00
2019-02-24T02:08:05.393Z,63.10
2019-02-24T02:10:36.500Z,61.83
2019-02-24T02:13:07.769Z,58.33
2019-02-24T02:15:38.755Z,58.20
2019-02-24T02:18:09.819Z,40.87
2019-02-24T02:20:41.005Z,25.60
2019-02-24T02:23:12.077Z,29.10
2019-02-24T02:25:43.078Z,43.20
2019-02-24T02:28:14.111Z,26.57
2019-02-24T02:30:45.165Z,31.60
2019-02-24T02:33:17.522Z,55.47
2019-02-24T02:35:50.697Z,54.33
2019-02-24T02:38:21.842Z,28.13
2019-02-24T02:40:52.946Z,54.77
2019-02-24T02:43:23.911Z,52.40
2019-02-24T02:45:55.010Z,53.25
2019-02-24T02:48:25.973Z,35.33
2019-02-24T02:50:57.058Z,41.73
2019-02-24T02:53:28.016Z,62.47
2019-02-24T02:55:59.001Z,41.90
2019-02-24T02:58:30.062Z,59.42
2019-02-24T03:01:01.154Z,35.73
2019-02-24T03:03:33.289Z,66.10
2019-02-24T03:06:05.998Z,29.63
2019-02-24T03:08:50.532Z,34.20
2019-02-24T03:11:21.533Z,41.10
2019-02-24T03:13:52.494Z,43.77
2019-02-24T03:16:25.122Z,59.97
2019-02-24T03:18:56.150Z,53.33
2019-02-24T03:21:27.137Z,44.53
2019-02-24T03:23:58.191Z,28.53
2019-02-24T03:26:29.187Z,24.33
2019-02-24T03:29:04.022Z,52.97
2019-02-24T03:31:32.900Z,53.60
2019-02-24T03:34:03.935Z,24.23
2019-02-24T03:36:35.215Z,52.37
2019-02-24T03:39:06.690Z,49.50
2019-02-24T03:41:37.773Z,58.77
2019-02-24T03:44:09.806Z,30.57
2019-02-24T03:46:40.974Z,46.60
2019-02-24T03:49:12.982Z,30.40
2019-02-24T03:51:44.090Z,28.73
2019-02-24T03:54:15.125Z,58.97
2019-02-24T03:56:46.351Z,58.15
2019-02-24T03:59:17.739Z,51.13
2019-02-24T04:01:48.805Z,56.33
2019-02-24T04:04:20.002Z,58.97
2019-02-24T04:06:51.011Z,64.13
2019-02-24T04:09:22.193Z,37.20
2019-02-24T04:11:53.189Z,49.50
2019-02-24T04:14:24.213Z,42.15
2019-02-24T04:16:55.321Z,61.90
2019-02-24T04:19:26.281Z,63.45
2019-02-24T04:21:57.358Z,48.40
2019-02-24T04:24:28.327Z,41.87
2019-02-24T04:26:59.425Z,51.70
2019-02-24T04:29:31.804Z,56.33
2019-02-24T04:32:04.430Z,53.70
2019-02-24T04:34:35.454Z,43.95
2019-02-24T04:37:07.569Z,55.70
2019-02-24T04:39:39.467Z,54.27
2019-02-24T04:42:11.430Z,57.13
2019-02-24T04:44:42.493Z,35.17
2019-02-24T04:47:13.573Z,56.70
2019-02-24T04:49:44.546Z,55.10
2019-02-24T04:52:15.527Z,50.73
2019-02-24T04:54:46.493Z,43.37
2019-02-24T04:57:17.483Z,54.90
2019-02-24T04:59:48.545Z,41.80
2019-02-24T05:02:19.837Z,57.53
2019-02-24T05:04:50.821Z,55.00
2019-02-24T05:07:21.918Z,40.73
2019-02-24T05:09:52.984Z,66.90
2019-02-24T05:12:24.374Z,69.33
2019-02-24T05:14:55.338Z,52.60
2019-02-24T05:17:26.494Z,62.77
2019-02-24T05:19:57.539Z,59.63
2019-02-24T05:22:28.526Z,63.52
2019-02-24T05:24:59.589Z,38.50
2019-02-24T05:27:30.941Z,61.30
2019-02-24T05:30:01.913Z,68.35
2019-02-24T05:32:33.141Z,64.77
2019-02-24T05:35:04.437Z,67.60
2019-02-24T05:37:35.662Z,74.45
2019-02-24T05:40:06.805Z,64.63
2019-02-24T05:42:37.788Z,67.50
2019-02-24T05:45:08.926Z,67.00
2019-02-24T05:47:40.059Z,70.12
2019-02-24T05:50:11.123Z,63.37
2019-02-24T05:52:43.164Z,38.37
2019-02-24T05:55:15.511Z,37.37
2019-02-24T05:57:46.611Z,74.73
2019-02-24T06:00:20.931Z,69.67
2019-02-24T06:02:51.920Z,58.98
2019-02-24T06:05:22.973Z,76.13
2019-02-24T06:07:54.068Z,85.07
2019-02-24T06:10:25.102Z,85.77
2019-02-24T06:12:56.260Z,72.83
2019-02-24T06:15:27.227Z,79.83
2019-02-24T06:17:59.683Z,47.23
2019-02-24T06:20:30.637Z,81.77
2019-02-24T06:23:01.625Z,49.67
2019-02-24T06:25:32.759Z,80.90
2019-02-24T06:28:03.825Z,87.37
2019-02-24T06:30:34.781Z,70.87
2019-02-24T06:33:05.769Z,89.43
2019-02-24T06:35:38.124Z,80.47
2019-02-24T06:38:11.062Z,87.27
2019-02-24T06:40:42.361Z,85.73
2019-02-24T06:43:13.431Z,74.17
2019-02-24T06:45:44.492Z,44.53
2019-02-24T06:48:15.478Z,97.37
2019-02-24T06:50:53.835Z,92.73
2019-02-24T06:53:24.897Z,83.67
2019-02-24T06:55:57.030Z,65.40
2019-02-24T06:58:29.416Z,64.60
2019-02-24T07:01:00.485Z,59.77
2019-02-24T07:03:31.647Z,52.35
2019-02-24T07:06:02.631Z,85.80
2019-02-24T07:08:33.720Z,93.33
2019-02-24T07:11:04.779Z,86.77
2019-02-24T07:13:35.885Z,87.17
2019-02-24T07:16:07.008Z,83.27
2019-02-24T07:18:38.169Z,56.55
2019-02-24T07:21:09.297Z,63.50
2019-02-24T07:23:40.450Z,61.97
2019-02-24T07:26:12.561Z,80.13
2019-02-24T07:28:43.635Z,32.58
2019-02-24T07:31:14.692Z,80.72
2019-02-24T07:33:45.787Z,64.07
2019-02-24T07:36:16.758Z,75.10
2019-02-24T07:38:48.750Z,89.53
2019-02-24T07:41:20.087Z,60.53
2019-02-24T07:43:51.183Z,59.47
2019-02-24T07:46:22.248Z,83.93
2019-02-24T07:48:53.406Z,78.60
2019-02-24T07:51:24.466Z,67.80
2019-02-24T07:53:55.542Z,84.75
2019-02-24T07:56:26.880Z,51.28
2019-02-24T07:58:58.030Z,43.50
2019-02-24T08:01:28.999Z,74.65
2019-02-24T08:03:59.975Z,84.03
2019-02-24T08:06:31.114Z,71.53
2019-02-24T08:09:02.209Z,86.47
2019-02-24T08:11:34.954Z,61.42
2019-02-24T08:14:06.043Z,47.10
2019-02-24T08:16:37.098Z,55.95
2019-02-24T08:19:08.326Z,40.95
2019-02-24T08:21:39.295Z,60.53
2019-02-24T08:24:11.530Z,68.90
2019-02-24T08:26:42.557Z,79.60
2019-02-24T08:29:13.559Z,51.87
2019-02-24T08:31:44.713Z,49.00
2019-02-24T08:34:15.806Z,93.20
2019-02-24T08:36:46.769Z,54.77
2019-02-24T08:39:17.882Z,58.90
2019-02-24T08:41:48.909Z,74.30
2019-02-24T08:44:22.093Z,51.80
2019-02-24T08:46:52.732Z,51.73
2019-02-24T08:49:23.739Z,62.60
2019-02-24T08:51:54.870Z,52.30
2019-02-24T08:54:25.971Z,53.33
2019-02-24T08:56:57.038Z,87.37
2019-02-24T08:59:28.085Z,68.13
2019-02-24T09:01:59.132Z,53.75
2019-02-24T09:04:30.224Z,88.33
2019-02-24T09:07:02.421Z,70.60
2019-02-24T09:09:33.711Z,57.15
2019-02-24T09:12:04.739Z,58.33
2019-02-24T09:14:35.823Z,50.08
2019-02-24T09:17:06.805Z,63.03
2019-02-24T09:19:37.893Z,79.40
2019-02-24T09:22:09.096Z,60.37
2019-02-24T09:24:40.246Z,60.60
2019-02-24T09:27:11.387Z,66.35
2019-02-24T09:29:42.471Z,53.83
2019-02-24T09:32:13.730Z,36.80
2019-02-24T09:34:44.681Z,59.35
2019-02-24T09:37:15.640Z,33.13
2019-02-24T09:39:46.719Z,56.10
2019-02-24T09:42:17.780Z,43.67
2019-02-24T09:44:48.882Z,37.40
2019-02-24T09:47:19.942Z,36.20
2019-02-24T09:49:51.030Z,58.50
2019-02-24T09:52:21.986Z,37.42
2019-02-24T09:54:53.063Z,48.10
2019-02-24T09:57:24.067Z,39.33
2019-02-24T09:59:55.363Z,42.60
2019-02-24T10:02:26.394Z,52.65
2019-02-24T10:04:57.554Z,51.15
2019-02-24T10:07:28.770Z,49.90
2019-02-24T10:09:59.915Z,52.73
2019-02-24T10:12:32.036Z,47.78
2019-02-24T10:15:05.587Z,26.50
2019-02-24T10:17:36.552Z,47.60
2019-02-24T10:20:12.916Z,43.75
2019-02-24T10:22:43.962Z,49.80
2019-02-24T10:25:15.041Z,32.73
2019-02-24T10:27:46.492Z,44.25
2019-02-24T10:30:17.769Z,45.40
2019-02-24T10:32:48.824Z,45.52
2019-02-24T10:35:20.058Z,52.10
2019-02-24T10:37:51.082Z,35.15
2019-02-24T10:40:22.794Z,31.95
2019-02-24T10:42:53.850Z,40.55
2019-02-24T10:45:24.921Z,39.73
2019-02-24T10:47:55.987Z,42.58
2019-02-24T10:50:27.078Z,27.32
2019-02-24T10:52:59.103Z,26.37
2019-02-24T10:55:30.155Z,31.07
2019-02-24T10:58:01.213Z,45.33
2019-02-24T11:00:32.502Z,39.63
2019-02-24T11:03:03.623Z,40.38
2019-02-24T11:05:34.681Z,43.35
2019-02-24T11:08:05.879Z,42.60
2019-02-24T11:10:36.961Z,19.17
2019-02-24T11:13:08.149Z,24.12
2019-02-24T11:15:39.229Z,34.88
2019-02-24T11:18:10.286Z,27.55
2019-02-24T11:20:41.341Z,22.98
2019-02-24T11:23:12.465Z,34.70
2019-02-24T11:25:43.446Z,29.07
2019-02-24T11:28:14.566Z,14.07
2019-02-24T11:30:45.677Z,20.10
2019-02-24T11:33:16.794Z,35.43
2019-02-24T11:35:47.785Z,23.20
2019-02-24T11:38:19.902Z,29.52
2019-02-24T11:40:51.762Z,20.70
2019-02-24T11:43:22.818Z,32.38
2019-02-24T11:45:53.898Z,18.27
2019-02-24T11:48:24.847Z,25.72
2019-02-24T11:50:56.076Z,19.10
2019-02-24T11:53:27.121Z,16.75
2019-02-24T11:55:58.099Z,17.20
2019-02-24T11:58:29.154Z,20.75
2019-02-24T12:01:00.134Z,22.27
2019-02-24T12:03:31.085Z,20.60
2019-02-24T12:06:02.123Z,13.62
2019-02-24T12:08:33.070Z,26.50
2019-02-24T12:11:04.133Z,36.33
2019-02-24T12:13:35.221Z,32.13
2019-02-24T12:16:06.346Z,11.30
2019-02-24T12:18:37.361Z,21.35
2019-02-24T12:21:08.415Z,27.25
2019-02-24T12:23:39.470Z,16.07
2019-02-24T12:26:10.510Z,26.07
2019-02-24T12:28:41.565Z,21.52
2019-02-24T12:31:12.646Z,25.45
2019-02-24T12:33:43.598Z,23.12
2019-02-24T12:36:15.005Z,23.73
2019-02-24T12:38:46.083Z,21.42
2019-02-24T12:41:17.723Z,12.18
2019-02-24T12:43:48.699Z,20.90
2019-02-24T12:46:19.880Z,20.75
2019-02-24T12:48:50.850Z,21.82
2019-02-24T12:51:21.844Z,22.25
2019-02-24T12:53:53.037Z,23.42
2019-02-24T12:56:25.418Z,20.15
2019-02-24T12:58:56.606Z,16.02
2019-02-24T13:01:27.645Z,13.48
2019-02-24T13:03:58.690Z,6.87
2019-02-24T13:06:29.829Z,13.38
2019-02-24T13:09:00.882Z,13.50
2019-02-24T13:11:33.627Z,15.03
2019-02-24T13:14:04.654Z,9.00
2019-02-24T13:16:35.903Z,13.13
2019-02-24T13:19:07.082Z,11.70
2019-02-24T13:21:38.125Z,12.45
2019-02-24T13:24:09.168Z,9.50
2019-02-24T13:26:41.540Z,13.68
2019-02-24T13:29:12.765Z,17.52
2019-02-24T13:31:43.751Z,17.95
2019-02-24T13:34:14.808Z,10.85
2019-02-24T13:36:45.886Z,11.95
2019-02-24T13:39:16.914Z,17.52
2019-02-24T13:41:47.934Z,18.80
2019-02-24T13:44:19.054Z,17.60
2019-02-24T13:46:50.124Z,10.63
2019-02-24T13:49:21.217Z,15.68
2019-02-24T13:51:52.186Z,12.90
2019-02-24T13:54:23.232Z,6.20
2019-02-24T13:56:54.315Z,13.70
2019-02-24T13:59:25.269Z,8.20
2019-02-24T14:01:56.502Z,12.30
2019-02-24T14:04:29.090Z,8.65
2019-02-24T14:07:00.190Z,7.40
2019-02-24T14:09:31.129Z,11.93
2019-02-24T14:12:02.206Z,11.73
2019-02-24T14:14:33.159Z,15.23
2019-02-24T14:17:04.206Z,13.45
2019-02-24T14:19:35.152Z,12.15
2019-02-24T14:22:06.126Z,10.13
2019-02-24T14:24:37.275Z,11.35
2019-02-24T14:27:08.416Z,11.85
2019-02-24T14:29:39.666Z,14.70
2019-02-24T14:32:10.650Z,13.00
2019-02-24T14:34:42.995Z,16.20
2019-02-24T14:37:14.242Z,13.30
2019-02-24T14:39:45.354Z,14.63
2019-02-24T14:42:16.787Z,19.52
2019-02-24T14:44:47.917Z,16.73
2019-02-24T14:47:18.897Z,21.17
2019-02-24T14:49:51.265Z,13.88
2019-02-24T14:52:22.343Z,20.55
2019-02-24T14:54:53.291Z,19.60
2019-02-24T14:57:24.354Z,11.97
2019-02-24T14:59:55.305Z,14.03
2019-02-24T15:02:26.366Z,13.18
2019-02-24T15:04:57.409Z,13.35
2019-02-24T15:07:28.570Z,14.45
2019-02-24T15:09:59.753Z,7.87
2019-02-24T15:12:30.790Z,6.33
2019-02-24T15:15:01.751Z,17.98
2019-02-24T15:17:32.791Z,20.70
2019-02-24T15:20:05.621Z,24.00
2019-02-24T15:22:36.606Z,23.35
2019-02-24T15:25:10.661Z,25.70
2019-02-24T15:27:41.655Z,25.68
2019-02-24T15:30:19.722Z,15.80
2019-02-24T15:32:52.135Z,16.60
2019-02-24T15:35:23.238Z,25.68
2019-02-24T15:37:54.396Z,18.85
2019-02-24T15:40:25.730Z,25.97
2019-02-24T15:42:57.714Z,37.80
2019-02-24T15:45:28.839Z,29.98
2019-02-24T15:47:59.894Z,35.75
2019-02-24T15:50:30.978Z,38.33
2019-02-24T15:53:02.077Z,39.75
2019-02-24T15:55:33.102Z,23.50
2019-02-24T15:58:04.254Z,17.40
2019-02-24T16:00:35.345Z,21.37
2019-02-24T16:03:07.517Z,42.13
2019-02-24T16:05:39.857Z,50.78
2019-02-24T16:08:10.891Z,53.92
2019-02-24T16:10:42.022Z,40.17
2019-02-24T16:13:16.938Z,51.90
2019-02-24T16:15:45.862Z,52.40
2019-02-24T16:18:16.946Z,46.60
2019-02-24T16:20:47.996Z,41.63
2019-02-24T16:23:18.974Z,27.02
2019-02-24T16:25:50.029Z,50.25
2019-02-24T16:28:21.005Z,26.93
2019-02-24T16:30:51.958Z,41.65
2019-02-24T16:33:24.112Z,44.67
2019-02-24T16:35:55.068Z,19.35
2019-02-24T16:38:26.047Z,43.75
2019-02-24T16:40:57.193Z,61.98
2019-02-24T16:43:28.710Z,62.67
2019-02-24T16:45:59.763Z,58.00
2019-02-24T16:48:30.781Z,44.30
2019-02-24T16:51:01.850Z,55.28
2019-02-24T16:53:32.870Z,29.77
2019-02-24T16:56:03.918Z,33.58
2019-02-24T16:58:34.889Z,28.17
2019-02-24T17:01:06.022Z,39.55
2019-02-24T17:03:38.078Z,46.00
2019-02-24T17:06:09.169Z,63.70
2019-02-24T17:08:40.324Z,55.25
2019-02-24T17:11:11.289Z,52.80
2019-02-24T17:13:43.033Z,51.85
2019-02-24T17:16:13.992Z,47.30
2019-02-24T17:18:45.075Z,36.35
2019-02-24T17:21:16.206Z,49.83
2019-02-24T17:23:49.978Z,59.73
2019-02-24T17:26:20.164Z,40.23
2019-02-24T17:28:51.317Z,50.38
2019-02-24T17:31:28.420Z,70.57
2019-02-24T17:33:55.090Z,61.63
2019-02-24T17:36:26.215Z,66.35
2019-02-24T17:38:57.338Z,30.02
2019-02-24T17:41:28.296Z,47.58
2019-02-24T17:44:00.202Z,33.53
2019-02-24T17:46:31.222Z,48.95
2019-02-24T17:49:02.109Z,46.28
2019-02-24T17:51:33.058Z,63.73
2019-02-24T17:54:04.202Z,77.67
2019-02-24T17:56:35.231Z,83.92
2019-02-24T17:59:06.401Z,86.78
2019-02-24T18:01:37.357Z,78.05
2019-02-24T18:04:09.749Z,85.72
2019-02-24T18:06:40.774Z,62.73
2019-02-24T18:09:12.011Z,63.45
2019-02-24T18:11:43.074Z,78.00
2019-02-24T18:14:14.226Z,67.00
2019-02-24T18:16:45.322Z,75.62
2019-02-24T18:19:17.704Z,91.10
2019-02-24T18:21:48.652Z,96.15
2019-02-24T18:24:19.706Z,86.37
2019-02-24T18:26:50.852Z,90.92
2019-02-24T18:29:23.019Z,49.60
2019-02-24T18:31:54.073Z,53.48
2019-02-24T18:34:25.237Z,54.15
2019-02-24T18:36:56.357Z,82.02
2019-02-24T18:39:27.514Z,81.35
2019-02-24T18:41:58.639Z,84.72
2019-02-24T18:44:30.652Z,92.97
2019-02-24T18:47:01.683Z,72.80
2019-02-24T18:49:32.858Z,78.33
2019-02-24T18:52:03.881Z,78.90
2019-02-24T18:54:35.137Z,79.62
2019-02-24T18:57:07.169Z,73.62
2019-02-24T18:59:38.260Z,79.77
2019-02-24T19:02:10.599Z,47.25
2019-02-24T19:04:41.582Z,73.17
2019-02-24T19:07:12.609Z,70.85
2019-02-24T19:09:43.752Z,61.92
2019-02-24T19:12:14.745Z,54.13
2019-02-24T19:14:45.845Z,78.45
2019-02-24T19:17:16.913Z,93.90
2019-02-24T19:19:48.019Z,91.32
2019-02-24T19:22:19.133Z,75.00
2019-02-24T19:24:50.144Z,92.40
2019-02-24T19:27:21.176Z,90.38
2019-02-24T19:29:52.238Z,88.37
2019-02-24T19:32:23.286Z,94.97
2019-02-24T19:34:54.410Z,100.70
2019-02-24T19:37:25.479Z,110.12
2019-02-24T19:39:56.593Z,124.50
2019-02-24T19:42:27.663Z,130.22
2019-02-24T19:44:59.385Z,114.95
2019-02-24T19:47:30.607Z,100.85
2019-02-24T19:50:01.742Z,98.97
2019-02-24T19:52:32.775Z,91.87
2019-02-24T19:55:04.478Z,99.37
2019-02-24T19:57:35.539Z,101.27
2019-02-24T20:00:09.660Z,107.15
2019-02-24T20:02:42.064Z,103.62
2019-02-24T20:05:13.199Z,107.35
2019-02-24T20:07:44.247Z,106.95
2019-02-24T20:10:23.780Z,117.05
2019-02-24T20:12:54.804Z,103.80
2019-02-24T20:15:27.195Z,99.07
2019-02-24T20:17:58.056Z,145.12
2019-02-24T20:20:29.118Z,144.95
2019-02-24T20:23:00.158Z,136.18
2019-02-24T20:25:31.226Z,179.85
2019-02-24T20:28:02.390Z,175.40
2019-02-24T20:30:37.407Z,177.57
2019-02-24T20:33:08.619Z,153.27
2019-02-24T20:35:39.773Z,116.67
2019-02-24T20:38:10.909Z,113.08
2019-02-24T20:40:41.884Z,118.53
2019-02-24T20:43:13.028Z,126.62
2019-02-24T20:45:50.766Z,119.82
2019-02-24T20:48:26.342Z,136.35
2019-02-24T20:50:57.401Z,130.10
2019-02-24T20:53:29.029Z,130.45
2019-02-24T20:56:00.118Z,134.90
2019-02-24T20:58:31.180Z,137.15
2019-02-24T21:01:02.229Z,146.95
2019-02-24T21:03:34.438Z,151.57
2019-02-24T21:06:05.498Z,159.57
2019-02-24T21:08:37.526Z,142.50
2019-02-24T21:11:09.711Z,140.88
2019-02-24T21:13:40.826Z,124.25
2019-02-24T21:16:11.906Z,138.85
2019-02-24T21:18:43.014Z,131.03
2019-02-24T21:21:14.166Z,128.93
2019-02-24T21:23:45.223Z,134.75
2019-02-24T21:26:17.602Z,144.85
2019-02-24T21:28:49.043Z,135.93
2019-02-24T21:31:23.641Z,131.85
2019-02-24T21:33:54.610Z,134.67
2019-02-24T21:36:25.593Z,133.18
2019-02-24T21:38:56.737Z,132.80
2019-02-24T21:41:29.767Z,129.18
2019-02-24T21:44:00.794Z,139.97
2019-02-24T21:46:32.667Z,147.90
2019-02-24T21:49:03.850Z,140.43
2019-02-24T21:51:34.956Z,144.43
2019-02-24T21:54:06.082Z,149.72
2019-02-24T21:56:37.065Z,152.67
2019-02-24T21:59:08.065Z,141.77
2019-02-24T22:01:39.146Z,126.75
2019-02-24T22:04:10.106Z,122.30
2019-02-24T22:06:41.168Z,126.50
2019-02-24T22:09:12.398Z,129.15
2019-02-24T22:11:43.554Z,131.33
2019-02-24T22:14:15.487Z,111.55
2019-02-24T22:16:46.642Z,133.47
2019-02-24T22:19:17.777Z,129.80
2019-02-24T22:21:50.160Z,135.32
2019-02-24T22:24:21.225Z,138.70
2019-02-24T22:26:52.414Z,130.67
2019-02-24T22:29:23.398Z,130.20
2019-02-24T22:31:54.563Z,130.10
2019-02-24T22:34:25.518Z,134.45
2019-02-24T22:36:56.514Z,136.03
2019-02-24T22:39:27.682Z,133.00
2019-02-24T22:41:58.762Z,144.95
2019-02-24T22:44:29.816Z,151.70
2019-02-24T22:47:01.866Z,153.25
2019-02-24T22:49:34.130Z,147.60
2019-02-24T22:52:05.140Z,148.47
2019-02-24T22:54:36.362Z,148.22
2019-02-24T22:57:07.449Z,140.03
2019-02-24T22:59:38.550Z,126.72
2019-02-24T23:02:11.234Z,120.47
2019-02-24T23:04:42.742Z,120.08
2019-02-24T23:07:13.737Z,112.45
2019-02-24T23:09:44.802Z,107.58
2019-02-24T23:12:15.787Z,90.90
2019-02-24T23:14:46.834Z,71.75
2019-02-24T23:17:17.927Z,73.30
2019-02-24T23:19:49.052Z,61.02
2019-02-24T23:22:20.226Z,60.17
2019-02-24T23:24:51.179Z,64.32
2019-02-24T23:27:22.325Z,73.67
2019-02-24T23:29:53.280Z,78.00
2019-02-24T23:32:24.334Z,47.20
2019-02-24T23:34:55.395Z,93.45
2019-02-24T23:37:26.452Z,78.42
2019-02-24T23:39:57.525Z,72.27
2019-02-24T23:42:28.685Z,83.35
2019-02-24T23:45:09.419Z,92.97
2019-02-24T23:47:33.197Z,101.20
2019-02-24T23:50:06.494Z,92.92
2019-02-24T23:52:37.477Z,101.80
2019-02-24T23:55:10.070Z,93.55
2019-02-24T23:57:41.162Z,88.67
